Time;durP1;ratioP1;P1;durP2;ratioP2;P2;SDS_P1;SDS_P2;PMS_P1;PMS_P2;Temp;Humidity;BMP_temperature;BMP_pressure;BME280_temperature;BME280_humidity;BME280_pressure;Samples;Min_cycle;Max_cycle;Signal;HPM_P1;HPM_P2
2023/07/04 00:07:31;;;;;;;;;;;;;;;13.17;100.00;101137.13;5263527;22;21366;-71
2023/07/04 00:09:59;;;;;;;10.75;2.22;;;;;;;12.76;100.00;101141.09;5048472;28;19954;-71
2023/07/04 00:12:24;;;;;;;12.55;2.42;;;;;;;12.45;100.00;101134.19;5052003;28;20025;-71
2023/07/04 00:14:50;;;;;;;9.75;2.20;;;;;;;12.25;100.00;101143.19;5050918;28;20029;-72
2023/07/04 00:17:15;;;;;;;9.98;2.47;;;;;;;12.09;100.00;101133.97;5051050;28;20033;-72
2023/07/04 00:19:40;;;;;;;15.27;2.72;;;;;;;11.97;100.00;101146.59;5051320;28;20037;-71
2023/07/04 00:22:10;;;;;;;14.80;2.40;;;;;;;11.94;100.00;101152.22;5052312;28;20037;-72
2023/07/04 00:24:35;;;;;;;14.02;2.10;;;;;;;11.90;100.00;101141.94;5035153;28;20039;-72
2023/07/04 00:27:02;;;;;;;15.05;2.63;;;;;;;11.84;100.00;101148.66;5051887;28;20037;-72
2023/07/04 00:29:28;;;;;;;8.60;2.60;;;;;;;11.78;100.00;101141.22;5052303;28;20071;-72
2023/07/04 00:31:53;;;;;;;15.75;2.42;;;;;;;11.74;100.00;101148.66;5051629;28;20389;-72
2023/07/04 00:34:20;;;;;;;10.98;2.33;;;;;;;11.68;100.00;101153.69;5052178;28;20508;-72
2023/07/04 00:36:46;;;;;;;9.73;2.28;;;;;;;11.65;100.00;101155.66;5052007;28;20037;-72
2023/07/04 00:39:11;;;;;;;11.55;2.08;;;;;;;11.63;100.00;101162.94;5034677;28;20055;-71
2023/07/04 00:41:37;;;;;;;13.57;2.60;;;;;;;11.67;100.00;101165.34;5050984;28;20029;-71
2023/07/04 00:44:19;;;;;;;15.30;2.70;;;;;;;11.65;100.00;101166.31;5051357;28;20033;-72
2023/07/04 00:50:07;;;;;;;13.90;2.25;;;;;;;11.75;100.00;101165.50;5250606;22;20099;-71
2023/07/04 00:52:35;;;;;;;6.90;1.67;;;;;;;11.75;100.00;101155.66;5031823;28;20069;-71
2023/07/04 00:55:05;;;;;;;14.65;3.15;;;;;;;11.81;100.00;101157.78;5031068;28;20071;-71
2023/07/04 00:57:33;;;;;;;3.78;1.80;;;;;;;11.88;100.00;101157.22;5031093;28;20029;-70
2023/07/04 01:00:10;;;;;;;8.45;1.73;;;;;;;11.98;100.00;101144.75;5030284;28;20507;-72
2023/07/04 01:02:37;;;;;;;3.50;1.45;;;;;;;12.04;100.00;101148.69;5031784;28;20142;-73
2023/07/04 01:05:03;;;;;;;7.03;1.38;;;;;;;12.08;100.00;101132.25;5031843;28;20045;-73
2023/07/04 01:07:51;;;;;;;4.45;1.30;;;;;;;12.14;100.00;101138.88;5032078;28;20079;-73
2023/07/04 01:10:32;;;;;;;7.45;1.23;;;;;;;12.24;100.00;101144.16;5014438;28;20397;-73
2023/07/04 01:12:58;;;;;;;2.88;1.20;;;;;;;12.28;100.00;101143.75;5013872;28;20124;-74
2023/07/04 01:15:23;;;;;;;8.48;1.60;;;;;;;12.28;100.00;101132.22;5031852;28;20419;-73
2023/07/04 01:17:51;;;;;;;8.13;1.60;;;;;;;12.28;100.00;101135.72;5013921;28;20092;-73
2023/07/04 01:20:17;;;;;;;3.85;1.20;;;;;;;12.22;100.00;101132.81;5032387;28;20041;-73
2023/07/04 01:23:04;;;;;;;5.68;1.17;;;;;;;12.21;100.00;101131.13;5035113;28;20040;-73
2023/07/04 01:25:38;;;;;;;7.82;1.65;;;;;;;12.20;100.00;101134.78;5035490;28;20037;-74
2023/07/04 01:28:05;;;;;;;10.25;1.50;;;;;;;12.16;100.00;101123.53;5034923;28;20034;-73
2023/07/04 01:30:38;;;;;;;4.95;1.50;;;;;;;12.13;100.00;101135.34;5035267;28;20061;-73
2023/07/04 01:33:05;;;;;;;5.22;1.20;;;;;;;12.26;100.00;101126.22;5034941;28;20108;-73
2023/07/04 01:35:33;;;;;;;8.25;1.63;;;;;;;12.38;100.00;101132.22;5035183;28;20064;-73
2023/07/04 01:37:59;;;;;;;9.07;1.20;;;;;;;12.47;100.00;101131.34;5034667;28;20136;-73
2023/07/04 01:40:25;;;;;;;4.75;1.27;;;;;;;12.54;100.00;101129.81;5035090;28;20027;-74
2023/07/04 01:42:51;;;;;;;10.48;1.58;;;;;;;12.51;100.00;101140.78;5034715;28;20113;-74
2023/07/04 01:45:18;;;;;;;7.30;1.33;;;;;;;12.48;100.00;101130.34;5034933;28;20454;-74
2023/07/04 01:47:44;;;;;;;8.18;2.17;;;;;;;12.43;100.00;101133.47;5034934;28;20052;-73
2023/07/04 01:50:10;;;;;;;7.10;1.95;;;;;;;12.41;100.00;101134.59;5033546;28;20120;-72
2023/07/04 01:52:36;;;;;;;10.15;1.40;;;;;;;12.40;100.00;101132.91;5034805;28;20063;-72
2023/07/04 01:55:02;;;;;;;8.18;1.90;;;;;;;12.50;100.00;101139.06;5034263;28;20025;-74
2023/07/04 01:57:27;;;;;;;5.43;1.20;;;;;;;12.63;100.00;101131.59;5034911;28;20373;-74
2023/07/04 01:59:53;;;;;;;13.05;1.80;;;;;;;12.68;100.00;101129.31;5016717;28;20458;-74
2023/07/04 02:02:18;;;;;;;3.63;1.45;;;;;;;12.72;100.00;101131.69;5034658;28;20032;-74
2023/07/04 02:04:44;;;;;;;7.35;1.55;;;;;;;12.74;100.00;101130.56;5034660;28;20029;-73
2023/07/04 02:07:11;;;;;;;8.18;1.65;;;;;;;12.67;100.00;101126.78;5034135;28;20034;-73
2023/07/04 02:09:37;;;;;;;6.22;1.75;;;;;;;12.64;100.00;101122.56;5034602;28;20037;-73
2023/07/04 02:12:02;;;;;;;8.60;1.85;;;;;;;12.71;100.00;101117.50;5034124;28;20040;-73
2023/07/04 02:14:28;;;;;;;12.27;1.70;;;;;;;12.83;100.00;101129.69;5034339;28;20052;-73
2023/07/04 02:16:53;;;;;;;8.07;1.80;;;;;;;12.83;100.00;101126.19;5033966;28;20025;-73
2023/07/04 02:19:19;;;;;;;6.93;2.08;;;;;;;12.84;100.00;101126.03;5034484;28;20034;-73
2023/07/04 02:21:44;;;;;;;6.63;2.25;;;;;;;12.83;100.00;101131.53;5034310;28;20033;-73
2023/07/04 02:24:10;;;;;;;4.53;1.52;;;;;;;12.84;100.00;101130.53;5034203;28;20087;-73
2023/07/04 02:26:36;;;;;;;15.02;2.17;;;;;;;12.90;100.00;101127.28;5034225;28;20041;-73
2023/07/04 02:29:01;;;;;;;10.43;3.13;;;;;;;12.98;100.00;101124.69;5033526;28;20040;-73
2023/07/04 02:31:27;;;;;;;10.80;1.80;;;;;;;13.07;100.00;101128.31;5016473;28;20120;-74
2023/07/04 02:33:53;;;;;;;9.88;3.72;;;;;;;13.07;100.00;101125.66;5033918;28;20072;-73
2023/07/04 02:36:19;;;;;;;9.68;1.90;;;;;;;13.01;100.00;101131.59;5033888;28;20057;-73
2023/07/04 02:38:44;;;;;;;12.55;2.00;;;;;;;12.94;100.00;101125.97;5034009;28;20030;-73
2023/07/04 02:41:10;;;;;;;6.68;1.70;;;;;;;12.84;100.00;101133.22;5015713;28;20099;-73
2023/07/04 02:43:36;;;;;;;8.32;1.80;;;;;;;12.75;100.00;101134.06;5033851;28;20082;-73
2023/07/04 02:46:03;;;;;;;7.88;1.98;;;;;;;12.68;100.00;101142.66;5033402;28;20120;-72
2023/07/04 02:48:29;;;;;;;11.02;2.05;;;;;;;12.66;100.00;101141.16;5033698;28;20033;-73
2023/07/04 02:50:55;;;;;;;7.10;2.08;;;;;;;12.72;100.00;101145.03;5033248;28;20129;-72
2023/07/04 02:53:22;;;;;;;7.50;2.17;;;;;;;12.75;100.00;101140.28;5033432;28;20500;-74
2023/07/04 02:55:48;;;;;;;8.60;1.85;;;;;;;12.75;100.00;101140.28;5033546;28;20030;-74
2023/07/04 02:58:14;;;;;;;10.60;2.67;;;;;;;12.76;100.00;101139.25;5033220;28;20127;-72
2023/07/04 03:00:40;;;;;;;12.40;1.98;;;;;;;12.73;100.00;101142.22;5033454;28;20156;-74
2023/07/04 03:03:06;;;;;;;9.48;1.90;;;;;;;12.72;100.00;101137.91;5033111;28;20065;-73
2023/07/04 03:05:31;;;;;;;5.32;1.88;;;;;;;12.69;100.00;101141.69;5033726;28;20178;-72
2023/07/04 03:07:56;;;;;;;8.10;1.90;;;;;;;12.62;100.00;101139.75;5032735;28;20045;-72
2023/07/04 03:10:22;;;;;;;10.73;2.00;;;;;;;12.66;100.00;101130.47;5033646;28;20430;-72
2023/07/04 03:12:47;;;;;;;10.20;2.10;;;;;;;12.68;100.00;101140.00;5033274;28;20037;-72
2023/07/04 03:15:12;;;;;;;17.30;2.60;;;;;;;12.67;100.00;101141.00;5032699;28;20433;-73
2023/07/04 03:17:38;;;;;;;13.23;2.13;;;;;;;12.67;100.00;101132.13;5033247;28;20040;-73
2023/07/04 03:20:07;;;;;;;13.85;2.25;;;;;;;12.67;100.00;101135.66;5032808;28;20466;-73
2023/07/04 03:22:32;;;;;;;9.05;2.58;;;;;;;12.70;100.00;101138.03;5033216;28;20034;-73
2023/07/04 03:24:57;;;;;;;10.65;2.25;;;;;;;12.76;100.00;101146.44;5032998;28;20040;-73
2023/07/04 03:27:23;;;;;;;11.52;2.20;;;;;;;12.77;100.00;101143.63;5033102;28;20060;-74
2023/07/04 03:29:48;;;;;;;11.60;2.03;;;;;;;12.86;100.00;101144.59;5033026;28;20041;-74
2023/07/04 03:32:13;;;;;;;8.30;2.00;;;;;;;12.90;100.00;101153.13;5032539;28;20032;-73
2023/07/04 03:34:39;;;;;;;10.90;2.35;;;;;;;12.98;100.00;101151.41;5032880;28;20044;-74
2023/07/04 03:37:04;;;;;;;7.20;1.98;;;;;;;13.00;100.00;101143.25;5014740;28;20030;-74
2023/07/04 03:39:29;;;;;;;16.00;2.72;;;;;;;12.96;100.00;101149.91;5015172;28;20132;-74
2023/07/04 03:41:55;;;;;;;15.85;2.50;;;;;;;12.94;100.00;101149.19;5032612;28;20072;-74
2023/07/04 03:44:20;;;;;;;18.58;4.50;;;;;;;12.97;100.00;101146.22;5031699;28;20052;-73
2023/07/04 03:46:46;;;;;;;11.63;2.10;;;;;;;12.99;100.00;101145.09;5032894;28;20041;-74
2023/07/04 03:49:11;;;;;;;11.07;2.17;;;;;;;13.01;100.00;101137.75;5032069;28;20474;-73
2023/07/04 03:51:36;;;;;;;11.02;2.40;;;;;;;13.02;100.00;101138.63;5032690;28;20049;-73
2023/07/04 03:54:02;;;;;;;12.55;2.15;;;;;;;13.00;100.00;101145.91;5031930;28;20030;-72
2023/07/04 03:56:27;;;;;;;8.93;2.28;;;;;;;12.99;100.00;101147.75;5032606;28;20164;-73
2023/07/04 03:58:53;;;;;;;8.02;2.40;;;;;;;12.99;100.00;101137.06;5032531;28;20041;-74
2023/07/04 04:01:18;;;;;;;10.07;2.72;;;;;;;13.02;100.00;101143.97;5032141;28;20109;-73
2023/07/04 04:03:43;;;;;;;7.40;2.13;;;;;;;13.05;100.00;101149.00;5032495;28;20073;-73
2023/07/04 04:06:09;;;;;;;20.25;2.20;;;;;;;13.11;100.00;101151.06;5031807;28;20033;-73
2023/07/04 04:08:35;;;;;;;10.02;2.63;;;;;;;13.17;100.00;101149.66;5032217;28;20034;-73
2023/07/04 04:11:01;;;;;;;7.40;1.77;;;;;;;13.23;100.00;101143.72;5032277;28;20022;-74
2023/07/04 04:13:27;;;;;;;9.57;1.80;;;;;;;13.28;100.00;101145.94;5014625;28;20037;-73
2023/07/04 04:15:53;;;;;;;6.90;2.08;;;;;;;13.31;100.00;101148.31;5014691;28;20029;-72
2023/07/04 04:18:18;;;;;;;13.45;2.70;;;;;;;13.37;100.00;101147.72;5031710;28;20047;-73
2023/07/04 04:20:44;;;;;;;5.65;2.03;;;;;;;13.40;100.00;101142.94;5031204;28;20033;-73
2023/07/04 04:23:09;;;;;;;11.07;2.33;;;;;;;13.40;100.00;101144.75;5031911;28;20462;-73
2023/07/04 04:25:38;;;;;;;13.35;2.40;;;;;;;13.37;100.00;101145.88;5032408;28;20029;-73
2023/07/04 04:28:04;;;;;;;11.75;2.20;;;;;;;13.37;100.00;101145.06;5031936;28;20029;-73
2023/07/04 04:30:30;;;;;;;8.50;2.55;;;;;;;13.38;100.00;101150.25;5031980;28;20044;-73
2023/07/04 04:32:55;;;;;;;10.50;2.35;;;;;;;13.42;100.00;101163.31;5032231;28;20116;-73
2023/07/04 04:35:21;;;;;;;18.58;2.55;;;;;;;13.45;100.00;101160.34;5031649;28;20121;-73
2023/07/04 04:37:47;;;;;;;13.75;2.45;;;;;;;13.45;100.00;101158.53;5032143;28;20413;-73
2023/07/04 04:40:12;;;;;;;8.00;1.98;;;;;;;13.44;100.00;101159.50;5031826;28;20028;-73
2023/07/04 04:42:37;;;;;;;11.68;2.47;;;;;;;13.46;100.00;101159.34;5032181;28;20457;-73
2023/07/04 04:45:04;;;;;;;10.95;2.42;;;;;;;13.45;100.00;101161.19;5032088;28;20095;-73
2023/07/04 04:47:33;;;;;;;11.77;2.38;;;;;;;13.49;100.00;101161.72;5031715;28;20505;-74
2023/07/04 04:50:00;;;;;;;13.82;2.45;;;;;;;13.51;100.00;101163.28;5031853;28;20033;-72
2023/07/04 04:52:29;;;;;;;9.93;2.50;;;;;;;13.53;100.00;101163.94;5031890;28;20052;-72
2023/07/04 04:54:55;;;;;;;17.90;2.28;;;;;;;13.55;100.00;101155.78;5033287;28;20470;-73
2023/07/04 04:57:20;;;;;;;10.05;2.17;;;;;;;13.58;100.00;101153.66;5035339;28;20063;-73
2023/07/04 04:59:47;;;;;;;9.45;1.95;;;;;;;13.66;100.00;101165.41;5035874;28;20115;-72
2023/07/04 05:02:13;;;;;;;16.38;2.28;;;;;;;13.75;100.00;101164.53;5017755;28;20037;-74
2023/07/04 05:04:39;;;;;;;12.15;2.60;;;;;;;13.87;100.00;101152.59;5035707;28;20060;-73
2023/07/04 05:07:04;;;;;;;13.52;2.22;;;;;;;13.98;100.00;101159.53;5017911;28;20381;-73
2023/07/04 05:09:31;;;;;;;11.05;2.50;;;;;;;14.09;100.00;101158.47;5035033;28;20057;-73
2023/07/04 05:11:56;;;;;;;12.60;2.28;;;;;;;14.13;100.00;101151.81;5035584;28;20038;-72
2023/07/04 05:14:21;;;;;;;6.93;2.30;;;;;;;14.19;100.00;101169.91;5017467;28;20105;-73
2023/07/04 05:16:47;;;;;;;6.60;2.20;;;;;;;14.25;100.00;101155.09;5035472;28;20036;-73
2023/07/04 05:19:12;;;;;;;13.30;2.78;;;;;;;14.27;100.00;101161.97;5034741;28;20116;-73
2023/07/04 05:21:37;;;;;;;10.70;2.33;;;;;;;14.29;100.00;101159.97;5035406;28;20036;-73
2023/07/04 05:24:03;;;;;;;14.55;2.60;;;;;;;14.29;100.00;101162.63;5035258;28;20465;-73
2023/07/04 05:26:29;;;;;;;15.18;2.67;;;;;;;14.28;100.00;101154.78;5031494;28;20594;-74
2023/07/04 05:28:58;;;;;;;13.60;2.00;;;;;;;14.22;100.00;101156.22;5032694;28;20141;-72
2023/07/04 05:31:29;;;;;;;15.90;2.75;;;;;;;14.15;100.00;101163.19;5032054;28;20033;-73
2023/07/04 05:33:56;;;;;;;9.95;2.22;;;;;;;14.16;100.00;101172.91;5032393;28;20112;-73
2023/07/04 05:36:24;;;;;;;8.13;2.00;;;;;;;14.20;100.00;101176.13;5031785;28;20033;-73
2023/07/04 05:38:51;;;;;;;13.05;2.40;;;;;;;14.28;100.00;101174.34;5031840;28;20063;-73
2023/07/04 05:41:19;;;;;;;7.65;2.28;;;;;;;14.42;100.00;101172.94;5031812;28;20132;-73
2023/07/04 05:43:44;;;;;;;12.00;2.70;;;;;;;14.60;100.00;101172.91;5032359;28;20076;-73
2023/07/04 05:46:11;;;;;;;13.75;2.25;;;;;;;14.74;100.00;101176.88;5031871;28;20128;-73
2023/07/04 05:48:38;;;;;;;13.68;2.33;;;;;;;14.86;100.00;101190.84;5024906;28;20030;-73
2023/07/04 05:51:08;;;;;;;14.88;2.30;;;;;;;15.01;100.00;101190.25;5034245;28;20065;-73
2023/07/04 05:53:36;;;;;;;5.68;1.92;;;;;;;15.14;100.00;101187.97;5034014;28;20030;-73
2023/07/04 05:56:28;;;;;;;14.07;2.85;;;;;;;15.20;100.00;101184.66;5034739;28;20140;-73
2023/07/04 05:58:57;;;;;;;20.00;2.33;;;;;;;15.16;100.00;101185.97;5032188;28;20095;-75
2023/07/04 06:01:25;;;;;;;11.82;2.63;;;;;;;15.20;100.00;101187.31;5033914;28;20454;-74
2023/07/04 06:03:52;;;;;;;13.40;2.88;;;;;;;15.27;100.00;101193.72;5034927;28;20029;-74
2023/07/04 06:06:22;;;;;;;19.00;2.88;;;;;;;15.45;100.00;101188.25;5033908;28;20044;-74
2023/07/04 06:08:49;;;;;;;15.05;3.45;;;;;;;15.71;100.00;101192.69;5034297;28;20413;-74
2023/07/04 06:11:15;;;;;;;12.77;2.42;;;;;;;15.97;100.00;101191.75;5034274;28;20029;-74
2023/07/04 06:13:41;;;;;;;19.15;2.88;;;;;;;16.08;100.00;101196.81;5034350;28;20104;-73
2023/07/04 06:16:07;;;;;;;11.63;2.10;;;;;;;16.01;100.00;101195.78;5016719;28;20420;-73
2023/07/04 06:18:33;;;;;;;15.63;2.80;;;;;;;15.93;100.00;101204.66;5033962;28;20075;-73
2023/07/04 06:21:14;;;;;;;13.50;1.98;;;;;;;15.90;100.00;101212.19;5034069;28;20064;-74
2023/07/04 06:23:40;;;;;;;10.98;2.53;;;;;;;15.77;100.00;101202.75;5034155;28;20470;-73
2023/07/04 06:26:06;;;;;;;21.00;2.67;;;;;;;15.70;100.00;101215.13;5034720;28;20596;-73
2023/07/04 06:28:32;;;;;;;12.02;2.70;;;;;;;15.61;100.00;101218.81;5016255;28;20033;-73
2023/07/04 06:30:58;;;;;;;19.80;2.97;;;;;;;15.66;100.00;101219.19;5034296;28;20037;-73
2023/07/04 06:33:23;;;;;;;12.35;2.30;;;;;;;15.63;100.00;101216.78;5033723;28;20037;-73
2023/07/04 06:35:49;;;;;;;10.98;2.65;;;;;;;15.64;100.00;101230.03;5034068;28;20033;-73
2023/07/04 06:38:14;;;;;;;11.80;2.63;;;;;;;15.58;100.00;101227.19;5034116;28;20087;-73
2023/07/04 06:40:40;;;;;;;18.90;3.33;;;;;;;15.51;100.00;101219.78;5033309;28;20029;-74
2023/07/04 06:43:05;;;;;;;14.98;2.78;;;;;;;15.43;100.00;101227.78;5033620;28;20191;-73
2023/07/04 06:45:32;;;;;;;14.20;2.50;;;;;;;15.36;100.00;101234.81;5033483;28;20139;-73
2023/07/04 06:47:58;;;;;;;8.13;2.13;;;;;;;15.39;100.00;101229.13;5033832;28;20044;-73
2023/07/04 06:50:24;;;;;;;19.95;2.83;;;;;;;15.38;100.00;101223.94;5015475;28;20060;-74
2023/07/04 06:52:49;;;;;;;15.85;2.67;;;;;;;15.51;100.00;101233.19;5033689;28;20454;-73
2023/07/04 06:55:15;;;;;;;17.75;3.30;;;;;;;15.85;100.00;101226.09;5033595;28;20026;-73
2023/07/04 06:57:40;;;;;;;14.32;2.65;;;;;;;16.09;100.00;101237.91;5034705;28;20111;-74
2023/07/04 07:00:06;;;;;;;13.57;2.38;;;;;;;16.31;100.00;101234.56;5012426;28;20055;-73
2023/07/04 07:02:32;;;;;;;12.25;2.38;;;;;;;16.55;100.00;101227.50;5030462;28;20493;-72
2023/07/04 07:04:57;;;;;;;13.23;2.63;;;;;;;16.67;100.00;101233.38;5013066;28;20065;-74
2023/07/04 07:07:23;;;;;;;15.93;2.70;;;;;;;16.80;100.00;101238.25;5030153;28;20396;-73
2023/07/04 07:09:48;;;;;;;11.55;3.05;;;;;;;16.83;100.00;101233.34;5030426;28;20044;-73
2023/07/04 07:12:14;;;;;;;9.38;2.35;;;;;;;16.80;100.00;101241.75;5012732;28;20108;-73
2023/07/04 07:14:39;;;;;;;9.70;2.28;;;;;;;16.71;100.00;101227.50;5030288;28;20036;-75
2023/07/04 07:17:06;;;;;;;14.10;3.03;;;;;;;16.75;100.00;101233.38;5030391;28;20037;-73
2023/07/04 07:19:32;;;;;;;12.05;2.45;;;;;;;16.81;100.00;101247.97;5029134;28;20399;-74
2023/07/04 07:22:00;;;;;;;12.50;2.45;;;;;;;16.96;100.00;101258.88;5030458;28;20473;-74
2023/07/04 07:24:27;;;;;;;16.15;2.78;;;;;;;17.09;100.00;101262.75;5029631;28;20037;-74
2023/07/04 07:26:52;;;;;;;10.13;2.75;;;;;;;17.08;100.00;101258.38;5030653;28;20071;-73
2023/07/04 07:29:17;;;;;;;14.25;2.63;;;;;;;17.22;100.00;101253.28;5030369;28;20041;-73
2023/07/04 07:31:43;;;;;;;13.05;2.67;;;;;;;17.26;100.00;101262.69;5029630;28;20029;-74
2023/07/04 07:34:08;;;;;;;12.02;2.80;;;;;;;17.24;100.00;101268.25;5027718;28;20057;-73
2023/07/04 07:36:37;;;;;;;10.57;2.72;;;;;;;17.20;100.00;101264.22;5026704;28;20112;-73
2023/07/04 07:39:05;;;;;;;14.45;2.00;;;;;;;17.05;100.00;101258.72;5030396;28;20086;-72
2023/07/04 07:41:34;;;;;;;17.73;3.08;;;;;;;17.25;100.00;101261.00;5031528;28;20087;-75
2023/07/04 07:43:59;;;;;;;12.48;2.47;;;;;;;17.38;100.00;101264.00;5031298;28;20030;-74
2023/07/04 07:46:25;;;;;;;17.55;2.63;;;;;;;17.42;100.00;101257.25;5031780;28;20044;-74
2023/07/04 07:48:51;;;;;;;13.02;2.72;;;;;;;17.30;100.00;101255.94;5031862;28;20425;-73
2023/07/04 07:51:18;;;;;;;9.57;2.40;;;;;;;17.24;100.00;101272.75;5013844;28;20049;-73
2023/07/04 07:53:46;;;;;;;6.82;1.85;;;;;;;17.22;100.00;101272.09;5013810;28;20478;-74
2023/07/04 07:56:14;;;;;;;10.75;2.17;;;;;;;17.42;100.00;101264.47;5031936;28;20025;-73
2023/07/04 07:58:40;;;;;;;10.80;2.20;;;;;;;17.70;100.00;101275.63;5031191;28;20489;-74
2023/07/04 08:01:16;;;;;;;11.23;2.45;;;;;;;17.80;100.00;101270.03;5031927;28;20040;-74
2023/07/04 08:03:42;;;;;;;12.10;2.35;;;;;;;18.02;100.00;101267.56;5031528;28;20029;-73
2023/07/04 08:06:09;;;;;;;11.77;2.38;;;;;;;18.09;100.00;101276.63;5031926;28;20120;-74
2023/07/04 08:08:35;;;;;;;17.02;2.67;;;;;;;18.05;100.00;101275.28;5013727;28;20470;-74
2023/07/04 08:11:00;;;;;;;14.25;2.80;;;;;;;18.17;100.00;101273.88;5031441;28;20069;-74
2023/07/04 08:13:26;;;;;;;14.27;2.85;;;;;;;18.19;100.00;101273.72;5031653;28;20064;-75
2023/07/04 08:15:55;;;;;;;12.00;2.50;;;;;;;18.17;100.00;101273.88;5030957;28;20029;-74
2023/07/04 08:18:21;;;;;;;14.10;2.92;;;;;;;18.19;100.00;101271.00;5031709;28;20034;-74
2023/07/04 08:20:57;;;;;;;12.10;2.30;;;;;;;18.04;100.00;101282.53;5031266;28;20087;-74
2023/07/04 08:23:22;;;;;;;10.32;2.38;;;;;;;17.84;100.00;101276.75;5031608;28;20084;-73
2023/07/04 08:25:48;;;;;;;14.20;2.50;;;;;;;17.58;100.00;101267.09;5030896;28;20776;-73
2023/07/04 08:28:15;;;;;;;12.18;2.42;;;;;;;17.36;100.00;101276.78;5013880;28;20044;-73
2023/07/04 08:30:41;;;;;;;9.52;2.88;;;;;;;17.22;100.00;101269.41;5033515;28;20121;-73
2023/07/04 08:33:06;;;;;;;14.20;2.67;;;;;;;17.10;100.00;101277.00;5035483;28;20037;-73
2023/07/04 08:35:31;;;;;;;14.75;2.53;;;;;;;17.17;100.00;101282.56;5034800;28;20022;-74
2023/07/04 08:37:57;;;;;;;13.75;2.83;;;;;;;17.30;100.00;101279.31;5035631;28;20049;-73
2023/07/04 08:40:22;;;;;;;8.32;2.22;;;;;;;17.33;100.00;101287.88;5035417;28;20040;-72
2023/07/04 08:42:48;;;;;;;13.50;3.25;;;;;;;17.40;100.00;101293.41;5034842;28;20423;-72
2023/07/04 08:45:24;;;;;;;6.82;1.98;;;;;;;17.55;100.00;101288.13;5035264;28;20033;-72
2023/07/04 08:47:51;;;;;;;14.57;2.60;;;;;;;17.72;100.00;101287.06;5034816;28;20034;-72
2023/07/04 08:50:29;;;;;;;11.75;2.55;;;;;;;18.04;100.00;101301.38;5034939;28;20049;-72
2023/07/04 08:53:00;;;;;;;9.25;2.47;;;;;;;18.25;100.00;101298.06;5034773;28;20125;-73
2023/07/04 08:55:27;;;;;;;15.02;3.38;;;;;;;18.35;100.00;101294.28;5035077;28;20034;-72
2023/07/04 08:57:57;;;;;;;7.13;2.25;;;;;;;18.47;100.00;101298.25;5034632;28;20163;-72
2023/07/04 09:00:32;;;;;;;10.73;2.60;;;;;;;18.63;100.00;101297.25;5035128;28;20084;-72
2023/07/04 09:03:16;;;;;;;11.43;2.50;;;;;;;18.81;100.00;101302.31;5033673;28;20025;-72
2023/07/04 09:05:56;;;;;;;13.45;2.50;;;;;;;18.85;100.00;101300.94;5034138;28;20025;-72
2023/07/04 09:08:46;;;;;;;12.93;2.15;;;;;;;19.07;97.87;101306.53;5034735;28;20032;-72
2023/07/04 09:11:12;;;;;;;8.98;2.75;;;;;;;19.25;90.03;101311.56;5034844;28;20465;-74
2023/07/04 09:13:41;;;;;;;11.18;2.28;;;;;;;19.25;96.06;101315.09;5034188;28;20482;-72
2023/07/04 09:16:31;;;;;;;15.15;2.90;;;;;;;19.31;96.56;101322.44;5033385;28;20033;-74
2023/07/04 09:19:06;;;;;;;6.95;2.13;;;;;;;19.20;96.28;101321.03;5019849;28;20052;-72
2023/07/04 09:21:32;;;;;;;11.98;2.38;;;;;;;18.98;90.54;101314.69;5034782;28;20522;-72
2023/07/04 09:23:59;;;;;;;9.10;2.28;;;;;;;19.09;90.42;101317.97;5016319;28;20064;-72
2023/07/04 09:26:30;;;;;;;12.27;3.10;;;;;;;18.90;90.07;101316.59;5034185;28;20045;-71
2023/07/04 09:28:57;;;;;;;10.38;2.40;;;;;;;19.06;93.61;101324.53;5034177;28;20178;-72
2023/07/04 09:31:31;;;;;;;8.57;2.08;;;;;;;19.45;95.58;101320.78;5016512;28;20065;-73
2023/07/04 09:34:00;;;;;;;14.82;2.35;;;;;;;19.80;86.86;101336.44;5034058;28;20507;-72
2023/07/04 09:36:31;;;;;;;10.60;2.90;;;;;;;20.18;75.19;101328.16;5034230;28;20389;-72
2023/07/04 09:38:58;;;;;;;14.20;2.80;;;;;;;20.17;85.69;101329.16;5033497;28;20049;-71
2023/07/04 09:41:31;;;;;;;13.10;3.10;;;;;;;20.06;81.43;101325.09;5032732;28;20045;-74
2023/07/04 09:44:14;;;;;;;13.10;2.70;;;;;;;20.07;85.94;101324.91;5033341;28;20029;-72
2023/07/04 09:46:47;;;;;;;12.27;2.40;;;;;;;20.04;82.46;101332.56;5033359;28;20457;-72
2023/07/04 09:49:29;;;;;;;9.82;2.30;;;;;;;19.98;69.47;101344.97;5034097;28;20108;-72
2023/07/04 09:52:18;;;;;;;8.82;2.78;;;;;;;19.55;78.43;101361.81;5033239;28;20054;-72
2023/07/04 09:54:44;;;;;;;11.35;2.65;;;;;;;19.19;71.82;101357.13;5033466;28;20110;-72
2023/07/04 09:57:23;;;;;;;11.68;2.45;;;;;;;18.96;74.49;101357.19;5033869;28;20068;-72
2023/07/04 09:59:50;;;;;;;11.43;2.75;;;;;;;18.83;85.12;101365.00;5033478;28;20029;-73
2023/07/04 10:02:24;;;;;;;7.50;2.30;;;;;;;19.49;83.98;101369.81;5033544;28;20037;-73
2023/07/04 10:04:50;;;;;;;13.43;2.63;;;;;;;19.82;84.70;101364.06;5033334;28;20104;-73
2023/07/04 10:07:19;;;;;;;10.25;2.63;;;;;;;19.74;84.88;101365.81;5033769;28;20112;-73
2023/07/04 10:09:49;;;;;;;8.00;2.50;;;;;;;19.78;93.67;101368.16;5015560;28;20385;-73
2023/07/04 10:12:17;;;;;;;12.68;2.55;;;;;;;19.65;96.49;101369.63;5033614;28;20036;-72
2023/07/04 10:14:45;;;;;;;14.77;2.67;;;;;;;19.76;96.21;101367.50;5033176;28;20041;-72
2023/07/04 10:17:32;;;;;;;15.45;3.35;;;;;;;20.20;97.27;101370.16;5033782;28;20021;-72
2023/07/04 10:20:05;;;;;;;24.23;2.90;;;;;;;20.38;89.15;101355.41;5033134;28;20049;-72
2023/07/04 10:22:34;;;;;;;15.13;2.85;;;;;;;20.29;91.67;101360.09;5033365;28;20179;-72
2023/07/04 10:25:01;;;;;;;14.43;2.58;;;;;;;20.08;98.20;101364.41;5032745;28;20037;-72
2023/07/04 10:27:34;;;;;;;9.95;2.30;;;;;;;19.99;86.25;101375.50;5033373;28;20112;-71
2023/07/04 10:30:03;;;;;;;12.57;2.95;;;;;;;20.10;83.17;101368.78;5032974;28;20040;-70
2023/07/04 10:32:33;;;;;;;12.68;2.47;;;;;;;20.66;81.69;101365.47;5033227;28;20037;-73
2023/07/04 10:34:58;;;;;;;10.45;2.85;;;;;;;21.05;82.09;101370.41;5032789;28;20119;-72
2023/07/04 10:37:34;;;;;;;14.98;2.63;;;;;;;21.29;73.26;101371.84;5015468;28;20052;-72
2023/07/04 10:40:08;;;;;;;8.07;2.67;;;;;;;21.34;78.12;101362.28;5014904;28;20026;-73
2023/07/04 10:42:33;;;;;;;10.10;3.00;;;;;;;21.57;71.55;101360.19;5033201;28;20031;-73
2023/07/04 10:45:00;;;;;;;10.27;2.45;;;;;;;21.63;70.94;101361.25;5032954;28;20029;-72
2023/07/04 10:47:31;;;;;;;9.70;2.50;;;;;;;21.48;73.92;101366.75;5032922;28;20061;-72
2023/07/04 10:50:02;;;;;;;9.65;2.45;;;;;;;21.45;71.87;101362.59;5032637;28;20465;-73
2023/07/04 10:52:32;;;;;;;7.15;2.20;;;;;;;21.36;75.89;101355.63;5032860;28;20068;-71
2023/07/04 10:55:00;;;;;;;8.23;2.47;;;;;;;21.45;74.00;101362.59;5032540;28;20033;-74
2023/07/04 10:57:36;;;;;;;13.35;2.50;;;;;;;21.63;76.52;101351.25;5032938;28;20115;-76
2023/07/04 11:00:30;;;;;;;8.90;2.50;;;;;;;21.25;81.20;101375.97;5032495;28;20038;-75
2023/07/04 11:03:06;;;;;;;9.98;2.55;;;;;;;20.95;78.18;101364.50;5032344;28;20053;-76
2023/07/04 11:05:37;;;;;;;16.13;2.40;;;;;;;20.72;78.78;101375.50;5015287;28;20029;-76
2023/07/04 11:08:06;;;;;;;;;;;;;;;20.54;73.92;101374.06;5032745;28;20473;-77
2023/07/04 11:10:37;;;;;;;11.18;2.40;;;;;;;20.96;80.39;101358.88;5032702;28;20365;-77
2023/07/04 11:13:03;;;;;;;7.38;2.10;;;;;;;21.46;71.58;101366.94;5014686;28;20132;-75
2023/07/04 11:15:36;;;;;;;7.72;2.03;;;;;;;22.62;73.32;101367.28;5014533;28;20056;-74
2023/07/04 11:18:01;;;;;;;6.40;2.03;;;;;;;22.83;57.99;101375.22;5031649;28;20075;-74
2023/07/04 11:20:51;;;;;;;11.15;2.20;;;;;;;22.38;55.71;101369.50;5032961;28;20041;-77
2023/07/04 11:23:19;;;;;;;9.60;2.20;;;;;;;21.67;64.72;101363.34;5032783;28;20036;-72
2023/07/04 11:25:45;;;;;;;8.07;2.20;;;;;;;21.83;62.11;101366.78;5032180;28;20037;-71
2023/07/04 11:28:41;;;;;;;18.02;2.35;;;;;;;22.57;60.65;101370.56;5032414;28;20028;-72